Strona główna
METAR-TAF:

METAR-TAF

Lotnisko :

Owatonna Degner Regional Airport

Owatonna, Minnesota, Stany Zjednoczone

Szerokość geograficzna: 44-07N, Długość geograficzna: 093-15W, wysokość: 350 m

Aktualna obserwacja pogody

Raport powstał 12 minut temu, godzina 06:33 UTC
Wiatr 3 kt od południe
Temperatura 12°C
Wilgotność 94%
Ciśnienie 1017 hPa
Widzialność: 16.1 km
bezchmurnie

METAR: KOWA 060633Z AUTO 19003KT 10SM CLR 12/11 A3002 RMK AO2

czas: 01:45 (06:45 UTC)


TAF: brakujący

Obserwacja i prognoza pogody dla ponad 4000 lotnisk (raport METAR i TAF).

Dostępne stacje oznaczono żółtymi i czerwonymi punktami na mapie.

Najedź kursorem aby zobaczyć nazwę stacji.

Kliknij aby zobaczyć obserwacje i prognozy pogody.

Aby zmienić mapę: kliknij na zielony przycisk z czarnym krzyżykiem, aby powiększyć; na zielony przycisk z myślnikiem, aby pomniejszyć; na zielone strzałki, aby przejść do map sąsiednich.


METAR-TAF: